Nedim — 9HA3154 — position and weather

sailwx.info

Track history (hours):
 
Tides and Currents Weather Stations Pressure Air Temp Water Temp Dewpoint Dewpoint Depression Visibility Wind Speed Wind Dir Waves Ship Positions

Nedim

Last reported at 2018-May-16 17:58 UTC. Time now 2018-May-24 17:26 UTC.
Position N 36°01' W 005°11'.

Length 180 m; draft 10.3 m.

Type: Cargo ship. MMSI: 229214000.

Date/timePositionNaut miles runAvg speedWind from/ knotsBaromVisibWave heightAir tempDewpointWater temp
2018-May-16 17:58N 36°01' W 005°11'612.8
2018-May-16 17:30N 35°60' W 005°18'612.6
2018-May-16 17:00N 35°58' W 005°25'611.4
2018-May-16 16:29N 35°56' W 005°32'510.8
2018-May-16 16:00N 35°55' W 005°39'711.8
2018-May-16 15:27N 35°54' W 005°47'  
2018-May-13 01:16N 35°57' W 023°46'711.2
2018-May-13 00:41N 35°57' W 023°54'210.9
2018-May-13 00:30N 35°57' W 023°57'1511.1
2018-May-12 23:11N 35°57' W 024°15'311.3
2018-May-12 22:57N 35°57' W 024°18'511.5
2018-May-12 22:30N 35°57' W 024°24'611.5
2018-May-12 22:00N 35°56' W 024°31'611.7
2018-May-12 21:30N 35°56' W 024°38'611.7
2018-May-12 21:00N 35°56' W 024°46'612.0
2018-May-12 20:31N 35°56' W 024°53'612.1
2018-May-12 20:00N 35°56' W 025°00'611.9
2018-May-12 19:30N 35°57' W 025°08'611.7
2018-May-12 19:01N 35°57' W 025°15'611.6
2018-May-12 18:30N 35°57' W 025°22'611.5
2018-May-12 18:00N 35°56' W 025°29'611.3
2018-May-12 17:31N 35°57' W 025°36'611.3
2018-May-12 17:00N 35°57' W 025°43'611.1
2018-May-12 16:30N 35°57' W 025°50'8910.9
2018-May-12 08:19N 35°57' W 027°40'511.0
2018-May-12 07:52N 35°57' W 027°46'11910.6
2018-May-11 20:40N 35°57' W 030°13'311.1
2018-May-11 20:26N 35°57' W 030°16'510.8
2018-May-11 20:00N 35°57' W 030°22'610.9
2018-May-11 19:25N 35°57' W 030°30'510.9
2018-May-11 18:57N 35°57' W 030°37'2210.9
2018-May-11 16:56N 35°57' W 031°04'2110.5
2018-May-11 14:58N 35°58' W 031°29'510.4
2018-May-11 14:29N 35°58' W 031°35'  
Track history (hours):
 
Tides and Currents Weather Stations Pressure Air Temp Water Temp Dewpoint Dewpoint Depression Visibility Wind Speed Wind Dir Waves Ship Positions

Nedim

Last reported at 2018-May-16 17:58 UTC. Time now 2018-May-24 17:26 UTC.
Position N 36°01' W 005°11'.

Length 180 m; draft 10.3 m.

Type: Cargo ship. MMSI: 229214000.

Date/timePositionNaut miles runAvg speedWind from/ knotsBaromVisibWave heightAir tempDewpointWater temp
2018-May-16 17:58N 36°01' W 005°11'612.8
2018-May-16 17:30N 35°60' W 005°18'612.6
2018-May-16 17:00N 35°58' W 005°25'611.4
2018-May-16 16:29N 35°56' W 005°32'510.8
2018-May-16 16:00N 35°55' W 005°39'711.8
2018-May-16 15:27N 35°54' W 005°47'  
2018-May-13 01:16N 35°57' W 023°46'711.2
2018-May-13 00:41N 35°57' W 023°54'210.9
2018-May-13 00:30N 35°57' W 023°57'1511.1
2018-May-12 23:11N 35°57' W 024°15'311.3
2018-May-12 22:57N 35°57' W 024°18'511.5
2018-May-12 22:30N 35°57' W 024°24'611.5
2018-May-12 22:00N 35°56' W 024°31'611.7
2018-May-12 21:30N 35°56' W 024°38'611.7
2018-May-12 21:00N 35°56' W 024°46'612.0
2018-May-12 20:31N 35°56' W 024°53'612.1
2018-May-12 20:00N 35°56' W 025°00'611.9
2018-May-12 19:30N 35°57' W 025°08'611.7
2018-May-12 19:01N 35°57' W 025°15'611.6
2018-May-12 18:30N 35°57' W 025°22'611.5
2018-May-12 18:00N 35°56' W 025°29'611.3
2018-May-12 17:31N 35°57' W 025°36'611.3
2018-May-12 17:00N 35°57' W 025°43'611.1
2018-May-12 16:30N 35°57' W 025°50'8910.9
2018-May-12 08:19N 35°57' W 027°40'511.0
2018-May-12 07:52N 35°57' W 027°46'11910.6
2018-May-11 20:40N 35°57' W 030°13'311.1
2018-May-11 20:26N 35°57' W 030°16'510.8
2018-May-11 20:00N 35°57' W 030°22'610.9
2018-May-11 19:25N 35°57' W 030°30'510.9
2018-May-11 18:57N 35°57' W 030°37'2210.9
2018-May-11 16:56N 35°57' W 031°04'2110.5
2018-May-11 14:58N 35°58' W 031°29'510.4
2018-May-11 14:29N 35°58' W 031°35'  

Dump ship's entire track history